Evergem, Belgium
Current Conditions -  °F | °C
As of 3:55 AM on Wednesday 22 Oct 2014 (Local Time) from EHFS Reporting Station
Scattered Clouds Scattered Clouds  
Wind Chill: 50°   Ceiling: Unl
Heat Index: 50°   Visibility: 6mi
Dew Point: 39°   Wind: 24mph
Humidity: 66%   Direction: 310°NW
Pressure: 30"   Gusts: 40mph
Location:  51.11°N, 3.7°E
Report Text: EHFS 220155Z AUTO 31021G35KT 260V350 9999 FEW035/// SCT046///10/04 Q1016
Loading
Personal Weather Stations






























Interactive Weather Map
Tropical Storm Tracking
New forecast layout! Learn more

10-Day Weather Forecast

Advertisements
Track Severe Weather on mobile